Mackville, Vermont
Current Conditions -  °F | °C
As of 9:54 PM on Monday 22 Dec 2014 (Local Time) from KMVL Reporting Station
Light Snow Light Snow  
Wind Chill: 31°   Ceiling: 2100
Heat Index: 31°   Visibility: 6mi
Dew Point: 27°   Wind: 0mph
Humidity: 85%   Direction: NA
Pressure: 30.3"   Gusts: NA
Location:  44.5213°N, 72.3604°W
Report Text: KMVL 230254Z AUTO 00000KT 6SM -SN BR OVC021 M01/M03 A3030 RMK AO2 SNB53 SLP271 P0000 60000 T10061028 56002 TSNO
Loading
Personal Weather Stations






























Interactive Weather Map New forecast layout! Learn more

10-Day Weather Forecast

Advertisements
Track Severe Weather on mobile